createdAt,value
2022-11-22T00:01:41.613Z,2.20
2022-11-22T00:04:43.435Z,2.08
2022-11-22T00:07:45.252Z,2.70
2022-11-22T00:10:49.636Z,2.25
2022-11-22T00:13:51.490Z,2.55
2022-11-22T00:16:53.217Z,2.15
2022-11-22T00:19:54.994Z,2.33
2022-11-22T00:22:57.946Z,2.33
2022-11-22T00:25:59.969Z,2.40
2022-11-22T00:29:01.664Z,2.20
2022-11-22T00:32:03.500Z,2.05
2022-11-22T00:35:05.754Z,2.42
2022-11-22T00:38:07.673Z,2.33
2022-11-22T00:41:09.764Z,2.58
2022-11-22T00:44:11.562Z,2.42
2022-11-22T00:47:13.291Z,2.92
2022-11-22T00:50:15.394Z,2.80
2022-11-22T00:53:17.499Z,2.50
2022-11-22T00:56:19.427Z,2.85
2022-11-22T00:59:21.162Z,3.00
2022-11-22T01:02:22.972Z,3.15
2022-11-22T01:05:24.754Z,2.38
2022-11-22T01:08:26.512Z,2.95
2022-11-22T01:11:28.409Z,2.90
2022-11-22T01:14:30.127Z,3.15
2022-11-22T01:17:32.013Z,3.08
2022-11-22T01:20:33.984Z,2.65
2022-11-22T01:23:36.022Z,3.90
2022-11-22T01:26:37.852Z,3.45
2022-11-22T01:29:39.698Z,4.25
2022-11-22T01:32:41.607Z,3.13
2022-11-22T01:35:43.890Z,3.60
2022-11-22T01:38:45.802Z,2.88
2022-11-22T01:41:47.622Z,2.70
2022-11-22T01:44:50.914Z,3.00
2022-11-22T01:47:53.370Z,3.40
2022-11-22T01:50:59.263Z,3.00
2022-11-22T01:54:06.327Z,2.80
2022-11-22T01:57:13.855Z,3.63
2022-11-22T02:00:17.832Z,3.28
2022-11-22T02:03:21.714Z,2.88
2022-11-22T02:06:28.943Z,2.95
2022-11-22T02:09:32.632Z,3.00
2022-11-22T02:12:35.406Z,2.80
2022-11-22T02:15:37.429Z,3.37
2022-11-22T02:18:39.316Z,2.22
2022-11-22T02:21:41.132Z,2.80
2022-11-22T02:24:50.775Z,3.20
2022-11-22T02:27:53.052Z,3.08
2022-11-22T02:30:55.113Z,2.08
2022-11-22T02:34:01.468Z,2.75
2022-11-22T02:37:03.595Z,3.17
2022-11-22T02:40:09.456Z,2.63
2022-11-22T02:43:16.930Z,3.25
2022-11-22T05:30:45.778Z,2.60
2022-11-22T05:33:47.817Z,2.10
2022-11-22T05:36:49.601Z,2.70
2022-11-22T05:39:51.821Z,2.55
2022-11-22T05:42:53.628Z,2.42
2022-11-22T05:45:55.532Z,2.05
2022-11-22T05:48:58.385Z,2.22
2022-11-22T05:52:00.543Z,2.22
2022-11-22T05:55:02.547Z,2.20
2022-11-22T05:58:04.321Z,2.60
2022-11-22T06:01:20.332Z,1.98
2022-11-22T06:04:22.313Z,2.22
2022-11-22T06:07:24.250Z,1.88
2022-11-22T06:10:26.871Z,1.83
2022-11-22T06:13:28.893Z,2.07
2022-11-22T06:16:30.880Z,2.08
2022-11-22T06:19:32.846Z,2.22
2022-11-22T06:22:34.667Z,2.35
2022-11-22T06:25:36.402Z,2.08
2022-11-22T06:28:39.645Z,1.40
2022-11-22T06:31:42.356Z,1.98
2022-11-22T06:34:44.773Z,1.48
2022-11-22T06:37:46.688Z,2.05
2022-11-22T06:40:48.450Z,2.35
2022-11-22T06:43:51.631Z,2.10
2022-11-22T06:46:53.372Z,1.92
2022-11-22T06:49:55.390Z,1.65
2022-11-22T06:52:57.343Z,1.98
2022-11-22T06:56:08.380Z,1.85
2022-11-22T06:59:10.319Z,2.15
2022-11-22T07:02:12.597Z,1.90
2022-11-22T07:05:29.601Z,1.88
2022-11-22T07:08:31.861Z,1.77
2022-11-22T07:11:34.813Z,1.95
2022-11-22T07:14:37.398Z,2.30
2022-11-22T07:17:39.089Z,2.47
2022-11-22T07:20:41.122Z,1.98
2022-11-22T07:23:44.514Z,2.13
2022-11-22T07:29:48.280Z,1.52
2022-11-22T07:32:50.439Z,1.70
2022-11-22T07:35:52.272Z,1.75
2022-11-22T07:38:54.118Z,1.83
2022-11-22T07:41:56.048Z,1.60
2022-11-22T07:44:58.003Z,1.50
2022-11-22T07:48:00.538Z,1.92
2022-11-22T07:51:08.995Z,1.77
2022-11-22T07:54:13.834Z,2.05
2022-11-22T07:57:15.524Z,2.08
2022-11-22T08:00:17.653Z,2.17
2022-11-22T08:03:22.771Z,1.95
2022-11-22T08:06:29.145Z,2.70
2022-11-22T08:09:31.189Z,2.22
2022-11-22T08:12:33.238Z,2.00
2022-11-22T08:15:34.977Z,1.75
2022-11-22T08:18:37.898Z,1.75
2022-11-22T08:21:39.685Z,1.58
2022-11-22T08:24:41.408Z,1.48
2022-11-22T08:27:44.220Z,1.45
2022-11-22T08:30:47.108Z,1.20
2022-11-22T08:33:52.732Z,1.40
2022-11-22T08:36:54.437Z,1.48
2022-11-22T08:39:56.417Z,1.50
2022-11-22T08:42:58.343Z,1.88
2022-11-22T08:46:01.977Z,1.65
2022-11-22T08:49:06.353Z,1.67
2022-11-22T08:52:08.191Z,1.42
2022-11-22T08:55:10.279Z,1.50
2022-11-22T08:58:12.192Z,1.80
2022-11-22T09:01:16.602Z,1.67
2022-11-22T09:04:18.539Z,1.35
2022-11-22T09:10:42.378Z,1.80
2022-11-22T09:13:44.595Z,1.80
2022-11-22T09:16:46.545Z,1.50
2022-11-22T09:19:48.324Z,1.40
2022-11-22T09:22:50.076Z,1.35
2022-11-22T09:26:09.303Z,1.67
2022-11-22T09:29:11.045Z,0.90
2022-11-22T09:32:13.702Z,1.00
2022-11-22T09:35:17.431Z,1.20
2022-11-22T09:38:19.287Z,1.05
2022-11-22T09:41:48.895Z,0.90
2022-11-22T09:45:25.292Z,0.70
2022-11-22T09:49:04.784Z,1.10
2022-11-22T09:52:25.085Z,1.10
2022-11-22T09:55:36.897Z,0.63
2022-11-22T09:59:10.331Z,0.90
2022-11-22T10:02:22.758Z,1.15
2022-11-22T10:05:30.335Z,0.82
2022-11-22T10:08:43.966Z,1.17
2022-11-22T10:15:02.775Z,0.70
2022-11-22T10:18:20.081Z,1.10
2022-11-22T10:21:22.113Z,0.70
2022-11-22T10:24:24.151Z,0.70
2022-11-22T10:27:31.343Z,0.68
2022-11-22T10:30:39.434Z,0.73
2022-11-22T10:33:45.651Z,0.85
2022-11-22T10:36:57.656Z,0.52
2022-11-22T10:40:13.113Z,1.10
2022-11-22T10:43:23.826Z,0.57
2022-11-22T10:46:57.146Z,0.93
2022-11-22T10:50:20.311Z,0.90
2022-11-22T10:53:41.333Z,0.73
2022-11-22T10:57:03.454Z,0.80
2022-11-22T11:00:17.549Z,0.70
2022-11-22T11:03:31.839Z,0.63
2022-11-22T11:07:12.536Z,0.60
2022-11-22T11:10:34.082Z,0.82
2022-11-22T11:13:50.154Z,0.80
2022-11-22T11:16:53.025Z,0.70
2022-11-22T11:20:00.871Z,0.90
2022-11-22T11:23:18.148Z,0.50
2022-11-22T11:26:40.471Z,0.60
2022-11-22T11:30:01.950Z,0.40
2022-11-22T11:33:18.377Z,0.50
2022-11-22T11:36:24.844Z,0.60
2022-11-22T11:39:34.512Z,0.30
2022-11-22T11:42:36.432Z,0.50
2022-11-22T11:45:38.202Z,0.50
2022-11-22T11:48:41.326Z,0.60
2022-11-22T11:51:48.602Z,0.55
2022-11-22T11:54:54.495Z,0.43
2022-11-22T11:57:56.260Z,0.60
2022-11-22T12:00:58.036Z,0.50
2022-11-22T12:04:03.673Z,0.45
2022-11-22T12:07:24.512Z,0.70
2022-11-22T12:10:26.190Z,0.60
2022-11-22T12:14:04.735Z,0.50
2022-11-22T12:17:12.480Z,0.80
2022-11-22T12:20:26.554Z,0.55
2022-11-22T12:23:38.224Z,0.60
2022-11-22T12:26:40.526Z,0.57
2022-11-22T12:29:46.261Z,0.47
2022-11-22T12:33:02.841Z,0.38
2022-11-22T12:36:12.698Z,0.40
2022-11-22T12:39:22.773Z,0.60
2022-11-22T12:42:38.217Z,0.45
2022-11-22T12:45:44.199Z,0.38
2022-11-22T12:49:05.384Z,0.50
2022-11-22T12:52:48.885Z,0.40
2022-11-22T12:56:09.167Z,0.50
2022-11-22T12:59:10.840Z,0.55
2022-11-22T13:02:36.678Z,0.43
2022-11-22T13:05:48.640Z,0.50
2022-11-22T13:09:07.587Z,0.50
2022-11-22T13:12:13.807Z,0.50
2022-11-22T13:15:25.737Z,0.40
2022-11-22T13:18:32.897Z,0.30
2022-11-22T13:21:43.008Z,0.60
2022-11-22T13:25:29.886Z,0.90
2022-11-22T13:28:36.346Z,0.98
2022-11-22T13:31:58.928Z,0.70
2022-11-22T13:35:06.640Z,1.10
2022-11-22T13:38:14.821Z,0.80
2022-11-22T13:41:27.952Z,0.98
2022-11-22T13:44:33.039Z,0.90
2022-11-22T13:47:38.824Z,0.75
2022-11-22T13:50:40.661Z,0.93
2022-11-22T13:53:43.931Z,0.90
2022-11-22T13:56:45.615Z,0.60
2022-11-22T13:59:47.572Z,0.70
2022-11-22T14:02:55.374Z,0.73
2022-11-22T14:05:58.231Z,0.70
2022-11-22T14:09:16.153Z,0.80
2022-11-22T14:12:48.699Z,0.88
2022-11-22T14:15:53.369Z,0.90
2022-11-22T14:19:12.996Z,0.70
2022-11-22T14:22:28.290Z,0.85
2022-11-22T14:25:51.429Z,0.80
2022-11-22T14:29:08.693Z,1.20
2022-11-22T14:32:19.247Z,1.10
2022-11-22T14:35:31.448Z,1.85
2022-11-22T14:38:35.624Z,2.25
2022-11-22T14:41:37.327Z,1.42
2022-11-22T14:44:40.481Z,2.40
2022-11-22T14:47:45.446Z,1.50
2022-11-22T14:51:09.279Z,2.10
2022-11-22T14:57:39.164Z,1.20
2022-11-22T15:00:43.680Z,0.80
2022-11-22T15:09:12.528Z,1.08
2022-11-22T15:09:20.683Z,0.93
2022-11-22T15:11:48.307Z,1.50
2022-11-22T16:00:18.812Z,1.45
2022-11-22T16:03:26.914Z,1.60
2022-11-22T16:06:31.200Z,2.63
2022-11-22T16:09:40.016Z,3.17
2022-11-22T16:12:42.019Z,3.17
2022-11-22T16:15:43.920Z,3.58
2022-11-22T16:18:47.014Z,2.40
2022-11-22T16:21:59.954Z,2.72
2022-11-22T16:25:21.936Z,2.05
2022-11-22T16:28:31.103Z,1.80
2022-11-22T16:31:33.269Z,1.83
2022-11-22T16:34:35.793Z,1.50
2022-11-22T16:37:40.472Z,2.17
2022-11-22T16:40:44.474Z,1.50
2022-11-22T16:43:49.257Z,1.60
2022-11-22T16:46:50.959Z,1.80
2022-11-22T16:49:52.778Z,2.03
2022-11-22T16:53:01.453Z,1.95
2022-11-22T16:56:05.766Z,1.85
2022-11-22T16:59:12.628Z,3.25
2022-11-22T17:02:17.249Z,3.40
2022-11-22T17:05:19.191Z,2.83
2022-11-22T17:08:21.014Z,2.47
2022-11-22T17:11:32.537Z,2.60
2022-11-22T17:14:34.617Z,2.78
2022-11-22T17:17:36.805Z,2.97
2022-11-22T17:20:38.825Z,2.45
2022-11-22T17:23:40.957Z,2.80
2022-11-22T17:26:42.777Z,3.00
2022-11-22T17:29:51.880Z,3.05
2022-11-22T17:32:53.998Z,2.47
2022-11-22T17:35:55.876Z,2.33
2022-11-22T17:38:59.629Z,2.60
2022-11-22T17:42:01.343Z,2.63
2022-11-22T17:45:03.171Z,2.75
2022-11-22T17:48:07.281Z,2.75
2022-11-22T17:51:11.470Z,3.20
2022-11-22T17:54:13.161Z,3.08
2022-11-22T17:57:15.070Z,3.13
2022-11-22T18:00:17.405Z,3.25
2022-11-22T18:03:19.218Z,2.83
2022-11-22T18:06:26.105Z,2.78
2022-11-22T18:09:28.028Z,2.60
2022-11-22T18:12:30.091Z,3.20
2022-11-22T18:15:31.941Z,3.30
2022-11-22T18:21:57.580Z,3.17
2022-11-22T18:24:59.365Z,3.20
2022-11-22T18:28:01.122Z,2.85
2022-11-22T18:31:04.467Z,3.22
2022-11-22T18:34:06.264Z,2.67
2022-11-22T18:37:08.095Z,2.38
2022-11-22T18:40:10.410Z,2.58
2022-11-22T18:43:12.381Z,2.70
2022-11-22T18:46:14.527Z,3.58
2022-11-22T18:49:16.276Z,3.22
2022-11-22T18:52:18.262Z,2.72
2022-11-22T18:55:20.940Z,2.92
2022-11-22T18:58:22.879Z,2.47
2022-11-22T19:01:26.291Z,3.38
2022-11-22T19:04:29.095Z,2.53
2022-11-22T19:07:31.576Z,2.83
2022-11-22T19:10:33.545Z,2.75
2022-11-22T19:13:37.499Z,2.55
2022-11-22T19:16:39.449Z,3.03
2022-11-22T19:19:41.154Z,2.60
2022-11-22T19:22:42.927Z,2.95
2022-11-22T19:25:44.794Z,3.20
2022-11-22T19:28:48.295Z,2.83
2022-11-22T19:31:50.481Z,3.88
2022-11-22T19:34:52.545Z,3.67
2022-11-22T19:37:54.323Z,3.80
2022-11-22T19:40:56.316Z,4.30
2022-11-22T19:43:58.424Z,4.70
2022-11-22T19:47:00.324Z,3.72
2022-11-22T19:50:02.320Z,4.38
2022-11-22T19:53:04.685Z,3.40
2022-11-22T19:56:14.934Z,2.95
2022-11-22T19:59:18.310Z,2.47
2022-11-22T20:05:21.846Z,2.30
2022-11-22T20:08:24.139Z,2.47
2022-11-22T20:11:26.112Z,2.90
2022-11-22T20:14:27.861Z,3.03
2022-11-22T20:17:30.663Z,2.58
2022-11-22T20:20:32.582Z,2.50
2022-11-22T20:23:34.453Z,2.63
2022-11-22T20:26:36.684Z,2.95
2022-11-22T20:29:38.459Z,2.10
2022-11-22T20:32:42.057Z,2.22
2022-11-22T20:35:43.798Z,2.50
2022-11-22T20:38:47.240Z,2.63
2022-11-22T20:41:51.475Z,2.33
2022-11-22T20:45:08.408Z,2.88
2022-11-22T20:48:10.363Z,3.67
2022-11-22T20:51:18.959Z,4.80
2022-11-22T20:54:20.666Z,3.65
2022-11-22T20:57:22.435Z,4.15
2022-11-22T21:00:24.214Z,3.17
2022-11-22T21:03:27.194Z,4.93
2022-11-22T21:06:29.209Z,5.00
2022-11-22T21:09:30.954Z,3.22
2022-11-22T21:12:32.683Z,2.85
2022-11-22T21:15:34.896Z,2.55
2022-11-22T21:18:36.986Z,2.97
2022-11-22T21:21:39.036Z,2.67
2022-11-22T21:24:40.856Z,2.50
2022-11-22T21:27:42.586Z,2.78
2022-11-22T21:30:44.452Z,3.15
2022-11-22T21:33:47.252Z,3.17
2022-11-22T21:36:49.005Z,3.15
2022-11-22T21:39:50.973Z,2.65
2022-11-22T21:42:52.772Z,2.38
2022-11-22T21:45:55.181Z,2.80
2022-11-22T21:48:57.028Z,2.17
2022-11-22T21:51:59.538Z,3.00
2022-11-22T21:55:01.355Z,2.70
2022-11-22T21:58:03.551Z,2.70
2022-11-22T22:01:10.993Z,2.70
2022-11-22T22:04:16.570Z,2.60
2022-11-22T22:07:44.808Z,2.63
2022-11-22T22:10:39.930Z,2.00
2022-11-22T22:13:41.845Z,2.25
2022-11-22T22:16:43.624Z,2.00
2022-11-22T22:19:47.070Z,1.85
2022-11-22T22:22:48.999Z,1.70
2022-11-22T22:25:50.871Z,2.47
2022-11-22T22:28:53.278Z,2.10
2022-11-22T22:31:55.862Z,2.22
2022-11-22T22:34:58.084Z,1.80
2022-11-22T22:38:02.909Z,2.10
2022-11-22T22:41:06.423Z,1.80
2022-11-22T22:44:08.486Z,1.95
2022-11-22T22:47:12.764Z,2.40
2022-11-22T22:50:15.308Z,2.08
2022-11-22T22:53:17.150Z,2.57
2022-11-22T22:56:21.071Z,2.30
2022-11-22T22:59:23.012Z,1.73
2022-11-22T23:02:24.872Z,2.10
2022-11-22T23:05:26.633Z,1.75
2022-11-22T23:08:28.432Z,1.50
2022-11-22T23:11:50.122Z,2.33
2022-11-22T23:14:51.928Z,1.85
2022-11-22T23:17:53.769Z,2.08
2022-11-22T23:20:59.930Z,2.30
2022-11-22T23:24:01.997Z,1.50
2022-11-22T23:27:04.155Z,2.10
2022-11-22T23:30:06.826Z,2.00
2022-11-22T23:33:09.430Z,2.13
2022-11-22T23:36:14.559Z,2.20
2022-11-22T23:39:16.444Z,2.05
2022-11-22T23:42:18.349Z,2.28
2022-11-22T23:45:20.213Z,2.60
2022-11-22T23:48:22.256Z,2.13
2022-11-22T23:51:24.557Z,1.95
2022-11-22T23:54:26.259Z,2.28
2022-11-22T23:57:27.976Z,2.10
